createdAt,value
2019-03-28T00:00:20.781Z,25.6
2019-03-28T00:01:10.788Z,25.5
2019-03-28T00:02:01.201Z,25.4
2019-03-28T00:02:50.326Z,25.4
2019-03-28T00:03:40.404Z,25.4
2019-03-28T00:04:30.186Z,25.3
2019-03-28T00:05:20.576Z,25.3
2019-03-28T00:06:11.435Z,25.3
2019-03-28T00:07:00.651Z,25.2
2019-03-28T00:07:51.249Z,25.1
2019-03-28T00:08:40.493Z,25.1
2019-03-28T00:09:31.390Z,25.1
2019-03-28T00:10:21.723Z,25
2019-03-28T00:11:11.325Z,24.9
2019-03-28T00:12:02.013Z,24.9
2019-03-28T00:12:51.348Z,24.9
2019-03-28T00:13:41.670Z,24.8
2019-03-28T00:14:31.782Z,24.8
2019-03-28T00:15:21.522Z,24.8
2019-03-28T00:16:11.863Z,24.8
2019-03-28T00:17:00.623Z,24.8
2019-03-28T00:17:51.305Z,24.8
2019-03-28T00:18:41.368Z,24.8
2019-03-28T00:19:30.892Z,24.8
2019-03-28T00:20:22.615Z,24.6
2019-03-28T00:21:10.987Z,24.6
2019-03-28T00:22:01.800Z,24.6
2019-03-28T00:22:51.670Z,24.6
2019-03-28T00:23:42.202Z,24.6
2019-03-28T00:24:32.288Z,24.5
2019-03-28T00:25:22.064Z,24.4
2019-03-28T00:26:12.125Z,24.4
2019-03-28T00:27:02.576Z,24.5
2019-03-28T00:27:53.014Z,24.6
2019-03-28T00:28:43.352Z,24.5
2019-03-28T00:29:32.959Z,24.5
2019-03-28T00:30:23.142Z,24.4
2019-03-28T00:31:13.279Z,24.4
2019-03-28T00:32:03.362Z,24.4
2019-03-28T00:32:53.067Z,24.4
2019-03-28T00:33:42.097Z,24.3
2019-03-28T00:34:33.006Z,24.3
2019-03-28T00:35:22.516Z,24.3
2019-03-28T00:36:12.839Z,24.2
2019-03-28T00:37:03.156Z,24.3
2019-03-28T00:37:53.706Z,24.4
2019-03-28T00:38:43.269Z,24.6
2019-03-28T00:39:32.984Z,24.7
2019-03-28T00:40:23.881Z,24.8
2019-03-28T00:41:13.204Z,24.9
2019-03-28T00:42:02.408Z,24.9
2019-03-28T00:42:53.779Z,24.9
2019-03-28T00:43:43.384Z,25
2019-03-28T00:44:33.896Z,25.1
2019-03-28T00:45:23.311Z,25.2
2019-03-28T00:46:13.749Z,25.3
2019-03-28T00:47:03.567Z,25.4
2019-03-28T00:47:54.155Z,25.4
2019-03-28T00:48:44.471Z,25.6
2019-03-28T00:49:34.263Z,25.6
2019-03-28T00:50:24.327Z,25.8
2019-03-28T00:51:14.174Z,25.9
2019-03-28T00:52:04.215Z,25.9
2019-03-28T00:52:54.544Z,26
2019-03-28T00:53:44.878Z,26
2019-03-28T00:54:34.621Z,25.9
2019-03-28T00:55:25.046Z,25.8
2019-03-28T00:56:14.478Z,25.8
2019-03-28T00:57:05.193Z,25.7
2019-03-28T00:57:54.418Z,25.6
2019-03-28T00:58:44.641Z,25.5
2019-03-28T00:59:35.077Z,25.4
2019-03-28T01:00:23.512Z,25.4
2019-03-28T01:01:14.640Z,25.3
2019-03-28T01:02:04.728Z,25.2
2019-03-28T01:02:54.515Z,25.1
2019-03-28T01:03:45.145Z,25
2019-03-28T01:04:34.883Z,24.9
2019-03-28T01:05:24.983Z,24.9
2019-03-28T01:06:14.450Z,24.8
2019-03-28T01:07:04.332Z,24.8
2019-03-28T01:07:54.950Z,24.7
2019-03-28T01:08:45.254Z,24.7
2019-03-28T01:09:35.611Z,24.7
2019-03-28T01:10:26.530Z,24.6
2019-03-28T01:11:16.489Z,24.6
2019-03-28T01:12:05.837Z,24.6
2019-03-28T01:12:56.506Z,24.5
2019-03-28T01:13:46.639Z,24.5
2019-03-28T01:14:35.722Z,24.4
2019-03-28T01:15:25.954Z,24.4
2019-03-28T01:16:16.108Z,24.4
2019-03-28T01:17:06.214Z,24.3
2019-03-28T01:17:57.082Z,24.3
2019-03-28T01:18:46.777Z,24.3
2019-03-28T01:19:36.644Z,24.3
2019-03-28T01:20:26.222Z,24.2
2019-03-28T01:21:16.926Z,24.2
2019-03-28T01:22:07.176Z,24.3
2019-03-28T01:22:57.237Z,24.3
2019-03-28T01:23:47.572Z,24.2
2019-03-28T01:24:36.831Z,24.2
2019-03-28T01:25:27.453Z,24.1
2019-03-28T01:26:16.921Z,24.1
2019-03-28T01:27:07.261Z,24.1
2019-03-28T01:27:57.496Z,24
2019-03-28T01:28:47.696Z,24
2019-03-28T01:29:37.346Z,24
2019-03-28T01:30:26.993Z,23.9
2019-03-28T01:31:17.046Z,23.9
2019-03-28T01:32:08.046Z,23.9
2019-03-28T01:32:58.003Z,24.1
2019-03-28T01:33:47.711Z,24.3
2019-03-28T01:34:38.001Z,24.3
2019-03-28T01:35:28.528Z,24.4
2019-03-28T01:36:18.431Z,24.5
2019-03-28T01:37:07.955Z,24.6
2019-03-28T01:37:58.078Z,24.6
2019-03-28T01:38:48.329Z,24.6
2019-03-28T01:39:38.813Z,24.8
2019-03-28T01:40:28.363Z,24.8
2019-03-28T01:41:18.674Z,24.9
2019-03-28T01:42:09.093Z,25.1
2019-03-28T01:42:58.028Z,25.2
2019-03-28T01:43:48.195Z,25.3
2019-03-28T01:44:37.738Z,25.4
2019-03-28T01:45:28.371Z,25.4
2019-03-28T01:46:18.093Z,25.6
2019-03-28T01:47:08.446Z,25.7
2019-03-28T01:47:57.110Z,25.8
2019-03-28T01:48:48.618Z,25.8
2019-03-28T01:49:38.358Z,25.7
2019-03-28T01:50:28.400Z,25.6
2019-03-28T01:51:18.172Z,25.5
2019-03-28T01:52:11.999Z,25.4
2019-03-28T01:52:59.149Z,25.4
2019-03-28T01:53:48.074Z,25.3
2019-03-28T01:54:38.719Z,25.3
2019-03-28T01:55:29.014Z,25.2
2019-03-28T01:56:19.377Z,25.1
2019-03-28T01:57:19.238Z,25.1
2019-03-28T01:57:59.212Z,24.9
2019-03-28T01:58:49.267Z,24.8
2019-03-28T01:59:39.326Z,24.8
2019-03-28T02:00:29.385Z,24.7
2019-03-28T02:01:19.174Z,24.6
2019-03-28T02:02:08.952Z,24.6
2019-03-28T02:02:59.862Z,24.5
2019-03-28T02:03:49.412Z,24.4
2019-03-28T02:04:39.755Z,24.4
2019-03-28T02:05:29.796Z,24.4
2019-03-28T02:06:19.529Z,24.4
2019-03-28T02:07:09.612Z,24.3
2019-03-28T02:07:59.124Z,24.3
2019-03-28T02:08:49.989Z,24.3
2019-03-28T02:09:40.392Z,24.3
2019-03-28T02:10:30.364Z,24.2
2019-03-28T02:11:20.566Z,24.2
2019-03-28T02:12:10.666Z,24.1
2019-03-28T02:13:01.212Z,24.1
2019-03-28T02:13:50.376Z,24.1
2019-03-28T02:14:41.231Z,24
2019-03-28T02:15:31.206Z,24
2019-03-28T02:16:19.979Z,23.9
2019-03-28T02:17:09.814Z,23.9
2019-03-28T02:17:59.834Z,23.9
2019-03-28T02:18:49.598Z,24
2019-03-28T02:19:41.048Z,23.9
2019-03-28T02:20:31.117Z,23.9
2019-03-28T02:21:20.941Z,23.9
2019-03-28T02:22:10.776Z,23.9
2019-03-28T02:23:00.828Z,23.8
2019-03-28T02:23:50.046Z,23.8
2019-03-28T02:24:40.374Z,23.8
2019-03-28T02:25:31.193Z,23.8
2019-03-28T02:26:20.696Z,23.8
2019-03-28T02:27:23.010Z,23.9
2019-03-28T02:28:00.648Z,24
2019-03-28T02:28:51.437Z,24.1
2019-03-28T02:29:40.985Z,24.2
2019-03-28T02:30:33.000Z,24.3
2019-03-28T02:31:23.258Z,24.3
2019-03-28T02:32:11.758Z,24.4
2019-03-28T02:33:02.415Z,24.4
2019-03-28T02:33:51.340Z,24.5
2019-03-28T02:34:41.419Z,24.6
2019-03-28T02:35:31.441Z,24.7
2019-03-28T02:36:22.146Z,24.8
2019-03-28T02:37:11.958Z,24.9
2019-03-28T02:38:02.070Z,25
2019-03-28T02:38:52.506Z,25.1
2019-03-28T02:39:42.046Z,25.3
2019-03-28T02:40:32.386Z,25.3
2019-03-28T02:41:22.237Z,25.4
2019-03-28T02:42:12.237Z,25.5
2019-03-28T02:43:02.375Z,25.6
2019-03-28T02:43:52.675Z,25.7
2019-03-28T02:44:43.883Z,25.7
2019-03-28T02:45:34.355Z,25.6
2019-03-28T02:46:23.175Z,25.6
2019-03-28T02:47:12.980Z,25.5
2019-03-28T02:48:03.698Z,25.4
2019-03-28T02:48:54.805Z,25.3
2019-03-28T02:49:42.743Z,25.3
2019-03-28T02:50:33.121Z,25.2
2019-03-28T02:51:23.465Z,25.1
2019-03-28T02:52:12.933Z,25.1
2019-03-28T02:53:02.466Z,25.1
2019-03-28T02:53:53.501Z,24.9
2019-03-28T02:54:43.716Z,24.8
2019-03-28T02:55:33.462Z,24.7
2019-03-28T02:56:24.140Z,24.6
2019-03-28T02:57:14.578Z,24.6
2019-03-28T02:58:03.343Z,24.5
2019-03-28T02:58:53.690Z,24.4
2019-03-28T02:59:43.755Z,24.4
2019-03-28T03:00:33.551Z,24.4
2019-03-28T03:01:24.180Z,24.3
2019-03-28T03:02:14.791Z,24.3
2019-03-28T03:03:04.114Z,24.3
2019-03-28T03:03:53.537Z,24.3
2019-03-28T03:07:24.419Z,24.1
2019-03-28T03:08:15.566Z,24
2019-03-28T03:09:05.849Z,24
2019-03-28T03:09:56.448Z,23.9
2019-03-28T03:10:45.708Z,23.9
2019-03-28T03:11:35.602Z,23.9
2019-03-28T03:12:24.784Z,23.9
2019-03-28T03:13:15.320Z,23.9
2019-03-28T03:14:05.610Z,24
2019-03-28T03:14:55.107Z,24.1
2019-03-28T03:15:45.738Z,24.1
2019-03-28T03:16:35.203Z,24.2
2019-03-28T03:17:24.725Z,24.3
2019-03-28T03:18:16.006Z,24.3
2019-03-28T03:19:06.353Z,24.4
2019-03-28T03:19:56.221Z,24.4
2019-03-28T03:20:46.609Z,24.5
2019-03-28T03:21:37.521Z,24.6
2019-03-28T03:22:25.346Z,24.8
2019-03-28T03:23:15.586Z,24.9
2019-03-28T03:24:06.129Z,24.9
2019-03-28T03:24:56.255Z,25
2019-03-28T03:25:45.731Z,25
2019-03-28T03:26:36.270Z,25.1
2019-03-28T03:27:26.298Z,25.1
2019-03-28T03:28:16.305Z,25.1
2019-03-28T03:29:06.537Z,25.1
2019-03-28T03:29:56.470Z,25.1
2019-03-28T03:30:46.651Z,25.1
2019-03-28T03:31:37.062Z,25.1
2019-03-28T03:32:26.950Z,25.1
2019-03-28T03:33:17.641Z,25.2
2019-03-28T03:34:09.723Z,25.3
2019-03-28T03:34:57.370Z,25.4
2019-03-28T03:35:47.181Z,25.4
2019-03-28T03:36:36.684Z,25.5
2019-03-28T03:37:26.232Z,25.6
2019-03-28T03:38:16.565Z,25.7
2019-03-28T03:39:06.425Z,25.8
2019-03-28T03:39:57.334Z,25.8
2019-03-28T03:40:46.981Z,25.7
2019-03-28T03:41:36.914Z,25.6
2019-03-28T03:42:27.404Z,25.5
2019-03-28T03:43:17.455Z,25.4
2019-03-28T03:44:07.859Z,25.4
2019-03-28T03:44:57.802Z,25.3
2019-03-28T03:45:47.932Z,25.3
2019-03-28T03:46:37.130Z,25.2
2019-03-28T03:47:27.254Z,25.1
2019-03-28T03:48:18.719Z,25.1
2019-03-28T03:49:08.477Z,24.9
2019-03-28T03:49:59.436Z,24.8
2019-03-28T03:50:48.661Z,24.8
2019-03-28T03:51:37.791Z,24.6
2019-03-28T03:52:27.834Z,24.6
2019-03-28T03:53:18.133Z,24.6
2019-03-28T03:54:07.956Z,24.5
2019-03-28T03:54:58.636Z,24.4
2019-03-28T03:55:48.606Z,24.4
2019-03-28T03:56:38.722Z,24.3
2019-03-28T03:57:28.744Z,24.3
2019-03-28T03:58:25.870Z,24.3
2019-03-28T03:59:08.286Z,24.3
2019-03-28T03:59:58.346Z,24.3
2019-03-28T04:00:48.763Z,24.2
2019-03-28T04:01:38.512Z,24.1
2019-03-28T04:02:28.017Z,24.1
2019-03-28T04:03:18.046Z,24.1
2019-03-28T04:04:09.019Z,24
2019-03-28T04:05:03.877Z,23.9
2019-03-28T04:05:49.325Z,23.9
2019-03-28T04:06:38.389Z,23.9
2019-03-28T04:07:28.995Z,24
2019-03-28T04:08:19.652Z,24.1
2019-03-28T04:09:09.601Z,24.1
2019-03-28T04:09:59.137Z,24.2
2019-03-28T04:10:49.118Z,24.3
2019-03-28T04:11:39.615Z,24.3
2019-03-28T04:12:29.859Z,24.4
2019-03-28T04:13:19.356Z,24.4
2019-03-28T04:14:10.056Z,24.5
2019-03-28T04:14:59.738Z,24.6
2019-03-28T04:15:49.560Z,24.7
2019-03-28T04:16:40.143Z,24.8
2019-03-28T04:17:29.870Z,24.9
2019-03-28T04:18:25.470Z,25.1
2019-03-28T04:19:09.893Z,25.2
2019-03-28T04:20:02.069Z,25.3
2019-03-28T04:20:49.917Z,25.4
2019-03-28T04:21:39.911Z,25.4
2019-03-28T04:22:30.552Z,25.5
2019-03-28T04:23:20.170Z,25.6
2019-03-28T04:24:10.773Z,25.7
2019-03-28T04:25:00.876Z,25.6
2019-03-28T04:25:50.622Z,25.6
2019-03-28T04:26:40.002Z,25.5
2019-03-28T04:27:30.617Z,25.4
2019-03-28T04:28:40.485Z,25.4
2019-03-28T04:29:11.270Z,25.3
2019-03-28T04:30:02.094Z,25.2
2019-03-28T04:30:50.690Z,25.1
2019-03-28T04:31:40.718Z,25.1
2019-03-28T04:32:31.004Z,25.1
2019-03-28T04:33:21.307Z,24.9
2019-03-28T04:34:16.932Z,24.8
2019-03-28T04:35:02.651Z,24.7
2019-03-28T04:35:52.322Z,24.6
2019-03-28T04:36:42.344Z,24.6
2019-03-28T04:37:31.375Z,24.5
2019-03-28T04:38:21.481Z,24.4
2019-03-28T04:39:11.449Z,24.3
2019-03-28T04:40:01.462Z,24.3
2019-03-28T04:40:51.919Z,24.3
2019-03-28T04:41:41.639Z,24.2
2019-03-28T04:42:31.384Z,24.1
2019-03-28T04:43:21.295Z,24.1
2019-03-28T04:44:11.355Z,24.1
2019-03-28T04:45:05.353Z,24
2019-03-28T04:45:51.851Z,24
2019-03-28T04:46:42.213Z,23.9
2019-03-28T04:47:32.297Z,23.9
2019-03-28T04:48:21.502Z,23.8
2019-03-28T04:49:12.090Z,23.8
2019-03-28T04:50:02.318Z,23.8
2019-03-28T04:50:52.215Z,23.7
2019-03-28T04:51:42.273Z,23.9
2019-03-28T04:52:35.819Z,24
2019-03-28T04:53:21.870Z,24.1
2019-03-28T04:54:15.288Z,24.1
2019-03-28T04:55:02.890Z,24.2
2019-03-28T04:55:52.805Z,24.3
2019-03-28T04:56:43.598Z,24.3
2019-03-28T04:57:33.932Z,24.3
2019-03-28T04:58:27.450Z,24.4
2019-03-28T04:59:13.090Z,24.6
2019-03-28T05:00:02.346Z,24.6
2019-03-28T05:00:53.070Z,24.8
2019-03-28T05:01:42.743Z,24.9
2019-03-28T05:02:34.349Z,25
2019-03-28T05:03:24.485Z,25.1
2019-03-28T05:04:13.635Z,25.1
2019-03-28T05:05:03.519Z,25.2
2019-03-28T05:05:52.782Z,25.3
2019-03-28T05:06:44.513Z,25.4
2019-03-28T05:07:32.852Z,25.4
2019-03-28T05:08:22.652Z,25.5
2019-03-28T05:09:13.576Z,25.5
2019-03-28T05:10:03.510Z,25.4
2019-03-28T05:10:53.917Z,25.3
2019-03-28T05:11:43.019Z,25.3
2019-03-28T05:12:34.066Z,25.1
2019-03-28T05:13:25.109Z,25.1
2019-03-28T05:14:15.186Z,24.9
2019-03-28T05:15:04.297Z,24.9
2019-03-28T05:15:54.330Z,24.9
2019-03-28T05:16:44.077Z,24.8
2019-03-28T05:17:33.842Z,24.8
2019-03-28T05:18:24.192Z,24.6
2019-03-28T05:19:14.274Z,24.5
2019-03-28T05:20:04.536Z,24.4
2019-03-28T05:20:54.633Z,24.4
2019-03-28T05:21:44.536Z,24.3
2019-03-28T05:22:34.506Z,24.3
2019-03-28T05:23:25.094Z,24.2
2019-03-28T05:24:14.359Z,24.1
2019-03-28T05:25:06.076Z,24.1
2019-03-28T05:25:55.799Z,24
2019-03-28T05:26:45.796Z,24
2019-03-28T05:27:35.434Z,23.9
2019-03-28T05:28:25.966Z,24
2019-03-28T05:29:15.257Z,24.1
2019-03-28T05:30:08.032Z,24.1
2019-03-28T05:30:55.091Z,24.2
2019-03-28T05:31:45.156Z,24.3
2019-03-28T05:32:35.018Z,24.3
2019-03-28T05:33:25.535Z,24.4
2019-03-28T05:34:15.813Z,24.4
2019-03-28T05:35:06.568Z,24.5
2019-03-28T05:35:56.155Z,24.6
2019-03-28T05:36:46.800Z,24.8
2019-03-28T05:37:35.346Z,24.8
2019-03-28T05:38:24.898Z,24.9
2019-03-28T05:39:15.500Z,25.1
2019-03-28T05:40:06.200Z,25.1
2019-03-28T05:40:55.561Z,25.3
2019-03-28T05:41:45.018Z,25.4
2019-03-28T05:42:36.229Z,25.4
2019-03-28T05:43:25.733Z,25.4
2019-03-28T05:44:15.783Z,25.4
2019-03-28T05:45:06.113Z,25.4
2019-03-28T05:45:56.205Z,25.3
2019-03-28T05:46:46.514Z,25.2
2019-03-28T05:47:37.237Z,25.1
2019-03-28T05:48:26.087Z,25
2019-03-28T05:49:16.422Z,24.9
2019-03-28T05:50:06.811Z,24.9
2019-03-28T05:50:56.162Z,24.8
2019-03-28T05:51:46.609Z,24.8
2019-03-28T05:52:36.032Z,24.6
2019-03-28T05:53:27.492Z,24.5
2019-03-28T05:54:15.800Z,24.4
2019-03-28T05:55:10.028Z,24.4
2019-03-28T05:55:56.447Z,24.3
2019-03-28T05:56:47.237Z,24.3
2019-03-28T05:57:37.004Z,24.2
2019-03-28T05:58:27.364Z,24.1
2019-03-28T05:59:19.310Z,24.1
2019-03-28T06:00:07.428Z,24.1
2019-03-28T06:00:58.308Z,24
2019-03-28T06:01:47.567Z,23.9
2019-03-28T06:02:37.687Z,24
2019-03-28T06:05:25.019Z,24.2
2019-03-28T06:06:15.000Z,24.3
2019-03-28T06:07:19.376Z,24.4
2019-03-28T06:07:54.279Z,24.4
2019-03-28T06:09:00.131Z,24.4
2019-03-28T06:09:50.044Z,24.6
2019-03-28T06:10:24.736Z,24.7
2019-03-28T06:11:15.278Z,24.8
2019-03-28T06:12:05.140Z,24.8
2019-03-28T06:13:09.627Z,24.9
2019-03-28T06:13:45.829Z,24.9
2019-03-28T06:14:35.609Z,24.9
2019-03-28T06:15:25.391Z,24.9
2019-03-28T06:16:15.172Z,24.9
2019-03-28T06:17:19.051Z,25
2019-03-28T06:17:57.281Z,25
2019-03-28T06:18:46.877Z,25
2019-03-28T06:19:35.868Z,25.1
2019-03-28T06:20:25.166Z,25.1
2019-03-28T06:21:15.989Z,25.1
2019-03-28T06:22:06.121Z,25.2
2019-03-28T06:22:55.643Z,25.3
2019-03-28T06:23:46.192Z,25.4
2019-03-28T06:24:36.835Z,25.5
2019-03-28T06:25:29.061Z,25.6
2019-03-28T06:26:17.116Z,25.6
2019-03-28T06:27:05.720Z,25.5
2019-03-28T06:27:56.162Z,25.4
2019-03-28T06:28:45.338Z,25.3
2019-03-28T06:29:35.895Z,25.3
2019-03-28T06:30:26.167Z,25.1
2019-03-28T06:31:17.600Z,25.1
2019-03-28T06:32:07.820Z,25
2019-03-28T06:32:59.783Z,24.9
2019-03-28T06:33:46.419Z,24.9
2019-03-28T06:34:36.249Z,24.9
2019-03-28T06:35:29.651Z,24.8
2019-03-28T06:36:18.227Z,24.8
2019-03-28T06:37:07.955Z,24.8
2019-03-28T06:38:00.417Z,24.7
2019-03-28T06:38:46.755Z,24.7
2019-03-28T06:39:39.700Z,24.6
2019-03-28T06:40:27.445Z,24.6
2019-03-28T06:41:17.020Z,24.6
2019-03-28T06:42:06.843Z,24.5
2019-03-28T06:42:57.367Z,24.5
2019-03-28T06:43:48.409Z,24.4
2019-03-28T06:44:37.217Z,24.4
2019-03-28T06:45:27.299Z,24.4
2019-03-28T06:46:17.665Z,24.3
2019-03-28T06:47:07.112Z,24.3
2019-03-28T06:47:57.734Z,24.3
2019-03-28T06:48:46.691Z,24.3
2019-03-28T06:49:37.129Z,24.2
2019-03-28T06:50:27.445Z,24.2
2019-03-28T06:51:17.955Z,24.1
2019-03-28T06:52:08.032Z,24.1
2019-03-28T06:52:57.568Z,24.1
2019-03-28T06:53:48.098Z,24.1
2019-03-28T06:54:38.040Z,24.1
2019-03-28T06:55:31.769Z,24.1
2019-03-28T06:56:19.356Z,24.2
2019-03-28T06:57:07.633Z,24.3
2019-03-28T06:57:58.016Z,24.3
2019-03-28T06:58:47.934Z,24.4
2019-03-28T06:59:44.709Z,24.4
2019-03-28T07:00:28.118Z,24.5
2019-03-28T07:01:18.919Z,24.6
2019-03-28T07:02:08.138Z,24.8
2019-03-28T07:02:57.981Z,24.9
2019-03-28T07:05:31.680Z,25.2
2019-03-28T07:06:14.751Z,25.3
2019-03-28T07:07:04.526Z,25.3
2019-03-28T07:07:54.366Z,25.3
2019-03-28T07:08:44.741Z,25.2
2019-03-28T07:09:35.177Z,25.1
2019-03-28T07:10:24.955Z,25
2019-03-28T07:11:14.770Z,24.9
2019-03-28T07:12:04.595Z,24.9
2019-03-28T07:12:54.635Z,24.8
2019-03-28T07:13:44.995Z,24.8
2019-03-28T07:14:35.395Z,24.7
2019-03-28T07:15:25.475Z,24.7
2019-03-28T07:16:15.173Z,24.6
2019-03-28T07:17:05.239Z,24.6
2019-03-28T07:17:55.015Z,24.5
2019-03-28T07:18:45.353Z,24.5
2019-03-28T07:19:35.498Z,24.5
2019-03-28T07:20:24.627Z,24.4
2019-03-28T07:21:14.799Z,24.4
2019-03-28T07:22:05.245Z,24.4
2019-03-28T07:22:55.343Z,24.4
2019-03-28T07:23:45.944Z,24.3
2019-03-28T07:24:35.980Z,24.3
2019-03-28T07:25:29.374Z,24.3
2019-03-28T07:26:15.825Z,24.3
2019-03-28T07:27:05.379Z,24.2
2019-03-28T07:27:56.031Z,24.2
2019-03-28T07:28:45.248Z,24.1
2019-03-28T07:29:35.918Z,24.1
2019-03-28T07:30:26.554Z,24.1
2019-03-28T07:31:16.469Z,24.1
2019-03-28T07:32:06.414Z,24
2019-03-28T07:32:56.131Z,24
2019-03-28T07:33:46.429Z,23.9
2019-03-28T07:34:35.974Z,23.9
2019-03-28T07:35:25.808Z,23.9
2019-03-28T07:36:16.051Z,23.9
2019-03-28T07:37:06.393Z,23.9
2019-03-28T07:37:56.276Z,23.8
2019-03-28T07:38:46.502Z,23.8
2019-03-28T07:39:36.878Z,23.8
2019-03-28T07:40:27.581Z,23.8
2019-03-28T07:41:19.776Z,23.7
2019-03-28T07:42:06.666Z,23.8
2019-03-28T07:42:57.195Z,23.8
2019-03-28T07:43:47.563Z,23.9
2019-03-28T07:44:40.916Z,23.9
2019-03-28T07:45:28.548Z,24
2019-03-28T07:46:16.825Z,24.1
2019-03-28T07:47:07.523Z,24.1
2019-03-28T07:47:58.098Z,24.1
2019-03-28T07:48:47.800Z,24.2
2019-03-28T07:49:40.652Z,24.3
2019-03-28T07:50:28.085Z,24.3
2019-03-28T07:51:17.680Z,24.2
2019-03-28T07:52:08.712Z,24.2
2019-03-28T07:52:58.985Z,24.1
2019-03-28T07:53:49.367Z,24
2019-03-28T07:54:38.195Z,24
2019-03-28T07:55:28.176Z,23.9
2019-03-28T07:56:18.258Z,23.9
2019-03-28T07:57:08.696Z,23.9
2019-03-28T07:57:58.075Z,23.8
2019-03-28T07:58:51.512Z,23.8
2019-03-28T07:59:38.791Z,23.8
2019-03-28T08:00:28.792Z,23.8
2019-03-28T08:01:22.360Z,23.8
2019-03-28T08:02:07.639Z,23.7
2019-03-28T08:03:02.246Z,23.7
2019-03-28T08:03:49.141Z,23.7
2019-03-28T08:04:38.869Z,23.7
2019-03-28T08:05:28.584Z,23.6
2019-03-28T08:06:21.574Z,23.6
2019-03-28T08:07:07.816Z,23.6
2019-03-28T08:07:58.886Z,23.6
2019-03-28T08:08:50.926Z,23.6
2019-03-28T08:09:43.689Z,23.6
2019-03-28T08:10:28.492Z,23.6
2019-03-28T08:11:20.258Z,23.6
2019-03-28T08:12:26.791Z,23.5
2019-03-28T08:12:59.439Z,23.6
2019-03-28T08:13:49.549Z,23.5
2019-03-28T08:14:39.639Z,23.5
2019-03-28T08:15:29.908Z,23.5
2019-03-28T08:16:18.907Z,23.4
2019-03-28T08:17:09.542Z,23.4
2019-03-28T08:18:00.083Z,23.4
2019-03-28T08:18:50.635Z,23.4
2019-03-28T08:19:44.402Z,23.4
2019-03-28T08:20:29.706Z,23.4
2019-03-28T08:21:20.341Z,23.4
2019-03-28T08:22:09.356Z,23.4
2019-03-28T08:22:59.698Z,23.5
2019-03-28T08:23:50.021Z,23.6
2019-03-28T08:24:39.780Z,23.6
2019-03-28T08:25:30.223Z,23.7
2019-03-28T08:26:20.178Z,23.8
2019-03-28T08:27:10.074Z,23.8
2019-03-28T08:28:03.838Z,23.8
2019-03-28T08:28:50.390Z,23.9
2019-03-28T08:29:40.456Z,24.1
2019-03-28T08:30:30.233Z,24.1
2019-03-28T08:31:21.710Z,24
2019-03-28T08:32:14.693Z,23.9
2019-03-28T08:33:01.455Z,23.9
2019-03-28T08:33:50.435Z,23.9
2019-03-28T08:34:40.803Z,23.8
2019-03-28T08:35:30.415Z,23.8
2019-03-28T08:36:20.670Z,23.8
2019-03-28T08:37:10.530Z,23.7
2019-03-28T08:38:01.097Z,23.7
2019-03-28T08:38:51.119Z,23.7
2019-03-28T08:39:44.410Z,23.6
2019-03-28T08:40:30.530Z,23.6
2019-03-28T08:41:21.802Z,23.6
2019-03-28T08:42:10.560Z,23.6
2019-03-28T08:43:00.892Z,23.6
2019-03-28T08:43:50.707Z,23.6
2019-03-28T08:44:41.940Z,23.6
2019-03-28T08:45:31.003Z,23.6
2019-03-28T08:46:21.644Z,23.6
2019-03-28T08:47:12.760Z,23.6
2019-03-28T08:48:01.529Z,23.5
2019-03-28T08:48:51.599Z,23.5
2019-03-28T08:49:41.596Z,23.5
2019-03-28T08:50:31.950Z,23.5
2019-03-28T08:51:21.829Z,23.4
2019-03-28T08:52:15.502Z,23.4
2019-03-28T08:53:01.637Z,23.4
2019-03-28T08:53:51.894Z,23.4
2019-03-28T08:54:41.969Z,23.4
2019-03-28T08:55:31.389Z,23.4
2019-03-28T08:56:21.624Z,23.3
2019-03-28T08:57:14.308Z,23.3
2019-03-28T08:58:02.249Z,23.2
2019-03-28T08:58:52.346Z,23.2
2019-03-28T08:59:42.336Z,23.2
2019-03-28T09:00:59.386Z,23.2
2019-03-28T09:01:22.536Z,23.3
2019-03-28T09:02:12.856Z,23.3
2019-03-28T09:03:02.079Z,23.4
2019-03-28T09:03:55.856Z,23.4
2019-03-28T09:04:42.971Z,23.4
2019-03-28T09:05:32.968Z,23.5
2019-03-28T09:06:24.698Z,23.6
2019-03-28T09:07:13.676Z,23.6
2019-03-28T09:08:03.677Z,23.7
2019-03-28T09:08:52.889Z,23.8
2019-03-28T09:09:43.783Z,23.8
2019-03-28T09:10:33.349Z,23.8
2019-03-28T09:11:27.235Z,23.8
2019-03-28T09:12:13.518Z,23.8
2019-03-28T09:13:03.794Z,23.8
2019-03-28T09:13:53.815Z,23.7
2019-03-28T09:14:44.014Z,23.6
2019-03-28T09:15:48.865Z,23.6
2019-03-28T09:16:23.741Z,23.6
2019-03-28T09:17:13.302Z,23.6
2019-03-28T09:18:06.588Z,23.5
2019-03-28T09:18:53.780Z,23.5
2019-03-28T09:19:45.716Z,23.5
2019-03-28T09:20:33.755Z,23.4
2019-03-28T09:21:24.205Z,23.4
2019-03-28T09:22:14.130Z,23.4
2019-03-28T09:23:04.283Z,23.4
2019-03-28T09:23:54.280Z,23.4
2019-03-28T09:24:44.345Z,23.4
2019-03-28T09:25:34.666Z,23.4
2019-03-28T09:26:24.673Z,23.4
2019-03-28T09:27:14.780Z,23.4
2019-03-28T09:28:04.287Z,23.3
2019-03-28T09:28:54.980Z,23.4
2019-03-28T09:29:43.857Z,23.3
2019-03-28T09:30:51.892Z,23.3
2019-03-28T09:31:27.034Z,23.3
2019-03-28T09:32:14.827Z,23.3
2019-03-28T09:33:03.786Z,23.2
2019-03-28T09:33:54.512Z,23.2
2019-03-28T09:34:44.589Z,23.2
2019-03-28T09:35:36.572Z,23.2
2019-03-28T09:36:25.917Z,23.1
2019-03-28T09:37:15.817Z,23.1
2019-03-28T09:38:05.315Z,23.1
2019-03-28T09:38:55.360Z,23.1
2019-03-28T09:39:45.699Z,23.1
2019-03-28T09:40:35.784Z,23.1
2019-03-28T09:41:25.621Z,23.1
2019-03-28T09:42:16.174Z,23.2
2019-03-28T09:43:05.759Z,23.2
2019-03-28T09:44:03.082Z,23.3
2019-03-28T09:44:46.340Z,23.3
2019-03-28T09:45:36.999Z,23.3
2019-03-28T09:46:25.409Z,23.4
2019-03-28T09:47:15.433Z,23.6
2019-03-28T09:48:06.113Z,23.5
2019-03-28T09:48:55.689Z,23.5
2019-03-28T09:49:45.905Z,23.4
2019-03-28T09:50:35.973Z,23.4
2019-03-28T09:51:25.904Z,23.3
2019-03-28T09:52:16.594Z,23.3
2019-03-28T09:53:07.693Z,23.3
2019-03-28T09:53:56.851Z,23.3
2019-03-28T09:54:45.905Z,23.1
2019-03-28T09:55:36.948Z,23.1
2019-03-28T09:56:26.958Z,23.1
2019-03-28T09:57:16.629Z,23.1
2019-03-28T09:58:07.029Z,23.1
2019-03-28T09:59:00.207Z,23.1
2019-03-28T09:59:47.148Z,23.1
2019-03-28T10:00:41.365Z,23
2019-03-28T10:01:26.984Z,23
2019-03-28T10:02:17.297Z,22.9
2019-03-28T10:03:06.714Z,22.9
2019-03-28T10:03:57.205Z,22.9
2019-03-28T10:06:24.475Z,22.9
2019-03-28T10:07:14.261Z,22.9
2019-03-28T10:08:04.531Z,22.8
2019-03-28T10:08:54.222Z,22.8
2019-03-28T10:09:47.580Z,22.8
2019-03-28T10:10:35.048Z,22.8
2019-03-28T10:11:23.784Z,22.8
2019-03-28T10:12:15.175Z,22.8
2019-03-28T10:13:04.951Z,22.7
2019-03-28T10:13:54.772Z,22.7
2019-03-28T10:14:45.327Z,22.7
2019-03-28T10:15:38.863Z,22.6
2019-03-28T10:16:25.469Z,22.6
2019-03-28T10:17:14.761Z,22.6
2019-03-28T10:18:05.096Z,22.6
2019-03-28T10:18:55.383Z,22.7
2019-03-28T10:19:46.813Z,22.7
2019-03-28T10:20:35.470Z,22.8
2019-03-28T10:21:25.573Z,22.8
2019-03-28T10:22:15.908Z,22.8
2019-03-28T10:23:05.943Z,22.9
2019-03-28T10:23:55.258Z,23.1
2019-03-28T10:24:46.040Z,23.2
2019-03-28T10:25:35.433Z,23.2
2019-03-28T10:26:25.605Z,23.2
2019-03-28T10:27:18.855Z,23.2
2019-03-28T10:28:05.857Z,23.1
2019-03-28T10:28:56.090Z,23.1
2019-03-28T10:29:45.860Z,23.1
2019-03-28T10:30:36.188Z,23
2019-03-28T10:31:26.035Z,22.9
2019-03-28T10:32:30.775Z,22.9
2019-03-28T10:33:06.232Z,22.9
2019-03-28T10:33:57.445Z,22.9
2019-03-28T10:34:46.121Z,22.8
2019-03-28T10:35:36.281Z,22.8
2019-03-28T10:36:29.761Z,22.8
2019-03-28T10:37:16.178Z,22.8
2019-03-28T10:38:07.037Z,22.8
2019-03-28T10:38:56.522Z,22.8
2019-03-28T10:39:46.692Z,22.8
2019-03-28T10:40:37.377Z,22.8
2019-03-28T10:41:31.767Z,22.7
2019-03-28T10:42:17.309Z,22.7
2019-03-28T10:43:07.173Z,22.7
2019-03-28T10:43:57.177Z,22.6
2019-03-28T10:44:47.489Z,22.6
2019-03-28T10:45:40.907Z,22.6
2019-03-28T10:46:27.332Z,22.6
2019-03-28T10:47:16.970Z,22.6
2019-03-28T10:48:07.726Z,22.6
2019-03-28T10:49:01.240Z,22.6
2019-03-28T10:49:48.719Z,22.6
2019-03-28T10:50:52.731Z,22.6
2019-03-28T10:51:27.978Z,22.6
2019-03-28T10:52:19.506Z,22.6
2019-03-28T10:53:07.837Z,22.6
2019-03-28T10:53:58.202Z,22.5
2019-03-28T10:54:47.719Z,22.4
2019-03-28T10:55:37.621Z,22.4
2019-03-28T10:56:30.997Z,22.4
2019-03-28T10:57:37.896Z,22.4
2019-03-28T10:58:25.243Z,22.5
2019-03-28T10:58:57.781Z,22.5
2019-03-28T10:59:47.803Z,22.6
2019-03-28T11:00:37.871Z,22.6
2019-03-28T11:01:57.971Z,22.8
2019-03-28T11:02:19.823Z,22.9
2019-03-28T11:03:10.502Z,22.9
2019-03-28T11:03:59.394Z,22.9
2019-03-28T11:04:49.761Z,22.9
2019-03-28T11:05:38.581Z,22.8
2019-03-28T11:06:28.725Z,22.8
2019-03-28T11:07:18.848Z,22.8
2019-03-28T11:08:09.228Z,22.7
2019-03-28T11:08:58.758Z,22.7
2019-03-28T11:09:49.053Z,22.7
2019-03-28T11:10:38.853Z,22.7
2019-03-28T11:11:29.968Z,22.6
2019-03-28T11:12:19.018Z,22.6
2019-03-28T11:13:13.415Z,22.6
2019-03-28T11:13:59.058Z,22.6
2019-03-28T11:14:52.738Z,22.6
2019-03-28T11:15:38.673Z,22.6
2019-03-28T11:16:30.510Z,22.6